sensor_id;sensor_type;location;lat;lon;timestamp;pressure;altitude;pressure_sealevel;temperature;humidity
25130;BME280;13308;50.860;13.664;2022-10-23T06:16:29;96919.22;;;10.16;100.00
25130;BME280;13308;50.860;13.664;2022-10-23T06:18:56;96922.38;;;10.18;100.00
25130;BME280;13308;50.860;13.664;2022-10-23T06:21:22;96926.31;;;10.17;100.00
25130;BME280;13308;50.860;13.664;2022-10-23T06:23:49;96927.03;;;10.21;100.00
25130;BME280;13308;50.860;13.664;2022-10-23T06:26:26;96922.28;;;10.25;100.00
25130;BME280;13308;50.860;13.664;2022-10-23T06:29:06;96920.28;;;10.29;100.00
25130;BME280;13308;50.860;13.664;2022-10-23T06:31:32;96919.78;;;10.34;100.00
25130;BME280;13308;50.860;13.664;2022-10-23T06:33:58;96920.53;;;10.38;100.00
25130;BME280;13308;50.860;13.664;2022-10-23T06:36:25;96916.47;;;10.46;100.00
25130;BME280;13308;50.860;13.664;2022-10-23T06:38:55;96930.91;;;10.57;100.00
25130;BME280;13308;50.860;13.664;2022-10-23T06:41:25;96938.72;;;10.62;100.00
25130;BME280;13308;50.860;13.664;2022-10-23T06:43:53;96926.00;;;10.68;100.00
25130;BME280;13308;50.860;13.664;2022-10-23T06:46:25;96930.50;;;10.85;100.00
25130;BME280;13308;50.860;13.664;2022-10-23T06:49:31;96928.28;;;11.00;100.00
25130;BME280;13308;50.860;13.664;2022-10-23T06:51:58;96933.53;;;11.17;100.00
25130;BME280;13308;50.860;13.664;2022-10-23T06:54:23;96929.94;;;11.20;100.00
25130;BME280;13308;50.860;13.664;2022-10-23T06:56:49;96933.94;;;11.39;100.00
25130;BME280;13308;50.860;13.664;2022-10-23T06:59:18;96932.91;;;11.52;100.00
25130;BME280;13308;50.860;13.664;2022-10-23T07:01:45;96945.75;;;11.66;100.00
25130;BME280;13308;50.860;13.664;2022-10-23T07:04:10;96940.59;;;11.87;100.00
25130;BME280;13308;50.860;13.664;2022-10-23T07:06:40;96945.28;;;12.10;100.00
25130;BME280;13308;50.860;13.664;2022-10-23T07:09:07;96949.34;;;12.25;100.00
25130;BME280;13308;50.860;13.664;2022-10-23T07:12:04;96940.66;;;12.42;100.00
25130;BME280;13308;50.860;13.664;2022-10-23T07:14:40;96948.59;;;12.60;100.00
25130;BME280;13308;50.860;13.664;2022-10-23T07:17:06;96946.81;;;12.69;100.00
25130;BME280;13308;50.860;13.664;2022-10-23T07:19:31;96952.38;;;12.85;100.00
25130;BME280;13308;50.860;13.664;2022-10-23T07:22:02;96948.72;;;13.08;100.00
25130;BME280;13308;50.860;13.664;2022-10-23T07:24:40;96955.38;;;13.26;100.00
25130;BME280;13308;50.860;13.664;2022-10-23T07:27:19;96948.72;;;13.40;100.00
25130;BME280;13308;50.860;13.664;2022-10-23T07:29:50;96951.59;;;13.52;100.00
25130;BME280;13308;50.860;13.664;2022-10-23T07:32:16;96950.41;;;13.82;100.00
25130;BME280;13308;50.860;13.664;2022-10-23T07:35:05;96954.47;;;13.93;100.00
25130;BME280;13308;50.860;13.664;2022-10-23T07:37:33;96945.75;;;14.07;100.00
25130;BME280;13308;50.860;13.664;2022-10-23T07:40:01;96953.88;;;14.30;100.00
25130;BME280;13308;50.860;13.664;2022-10-23T07:42:26;96943.38;;;14.50;100.00
25130;BME280;13308;50.860;13.664;2022-10-23T07:44:51;96945.97;;;14.70;100.00
25130;BME280;13308;50.860;13.664;2022-10-23T07:47:17;96946.44;;;14.81;100.00
25130;BME280;13308;50.860;13.664;2022-10-23T07:49:47;96944.09;;;14.92;100.00
25130;BME280;13308;50.860;13.664;2022-10-23T07:52:12;96947.66;;;14.92;100.00
25130;BME280;13308;50.860;13.664;2022-10-23T07:55:10;96945.09;;;14.85;100.00
25130;BME280;13308;50.860;13.664;2022-10-23T07:57:41;96947.00;;;14.88;100.00
25130;BME280;13308;50.860;13.664;2022-10-23T08:00:20;96951.44;;;14.98;100.00
25130;BME280;13308;50.860;13.664;2022-10-23T08:02:54;96958.69;;;15.21;100.00
25130;BME280;13308;50.860;13.664;2022-10-23T08:05:20;96956.53;;;15.50;100.00
25130;BME280;13308;50.860;13.664;2022-10-23T08:07:53;96958.09;;;15.63;100.00
25130;BME280;13308;50.860;13.664;2022-10-23T08:10:18;96960.81;;;15.88;97.92
25130;BME280;13308;50.860;13.664;2022-10-23T08:12:44;96963.69;;;15.97;97.86
25130;BME280;13308;50.860;13.664;2022-10-23T08:15:11;96965.78;;;16.27;96.70
25130;BME280;13308;50.860;13.664;2022-10-23T08:17:48;96957.91;;;16.69;94.35
25130;BME280;13308;50.860;13.664;2022-10-23T08:20:39;96951.22;;;16.88;91.85
25130;BME280;13308;50.860;13.664;2022-10-23T08:23:05;96953.25;;;17.18;90.92
25130;BME280;13308;50.860;13.664;2022-10-23T08:25:30;96946.06;;;17.38;90.78
25130;BME280;13308;50.860;13.664;2022-10-23T08:27:56;96946.75;;;17.69;87.17
25130;BME280;13308;50.860;13.664;2022-10-23T08:30:22;96946.19;;;17.92;86.02
25130;BME280;13308;50.860;13.664;2022-10-23T08:32:47;96945.41;;;18.28;84.53
25130;BME280;13308;50.860;13.664;2022-10-23T08:35:13;96951.31;;;18.21;84.79
25130;BME280;13308;50.860;13.664;2022-10-23T08:37:39;96956.31;;;18.35;85.70
25130;BME280;13308;50.860;13.664;2022-10-23T08:40:06;96962.66;;;18.53;84.86
25130;BME280;13308;50.860;13.664;2022-10-23T08:45:43;96959.88;;;19.12;80.69
25130;BME280;13308;50.860;13.664;2022-10-23T08:48:42;96953.66;;;19.91;75.32
25130;BME280;13308;50.860;13.664;2022-10-23T08:51:41;96957.06;;;20.19;74.07
25130;BME280;13308;50.860;13.664;2022-10-23T08:54:18;96947.25;;;20.38;71.01
25130;BME280;13308;50.860;13.664;2022-10-23T08:57:12;96953.06;;;20.49;69.25
25130;BME280;13308;50.860;13.664;2022-10-23T08:59:39;96936.59;;;20.27;68.11
25130;BME280;13308;50.860;13.664;2022-10-23T09:02:16;96930.69;;;20.02;68.85
25130;BME280;13308;50.860;13.664;2022-10-23T09:04:45;96928.81;;;19.84;69.57
25130;BME280;13308;50.860;13.664;2022-10-23T09:07:23;96938.94;;;19.82;70.12
25130;BME280;13308;50.860;13.664;2022-10-23T09:12:41;96945.38;;;20.73;65.34
25130;BME280;13308;50.860;13.664;2022-10-23T09:15:23;96939.19;;;21.27;65.88
25130;BME280;13308;50.860;13.664;2022-10-23T09:17:56;96934.91;;;21.46;61.73
25130;BME280;13308;50.860;13.664;2022-10-23T09:20:26;96933.22;;;21.05;59.70
25130;BME280;13308;50.860;13.664;2022-10-23T09:25:39;96938.69;;;20.70;64.08
25130;BME280;13308;50.860;13.664;2022-10-23T09:28:05;96930.50;;;21.25;62.91
25130;BME280;13308;50.860;13.664;2022-10-23T09:30:35;96947.94;;;22.18;60.37
25130;BME280;13308;50.860;13.664;2022-10-23T09:33:21;96959.16;;;22.78;61.55
25130;BME280;13308;50.860;13.664;2022-10-23T09:35:54;96961.16;;;22.32;59.19
25130;BME280;13308;50.860;13.664;2022-10-23T09:38:33;96954.78;;;21.77;57.47
25130;BME280;13308;50.860;13.664;2022-10-23T09:41:25;96946.53;;;21.39;59.36
25130;BME280;13308;50.860;13.664;2022-10-23T09:44:20;96939.97;;;20.84;58.86
25130;BME280;13308;50.860;13.664;2022-10-23T09:46:58;96940.88;;;21.68;58.14
25130;BME280;13308;50.860;13.664;2022-10-23T09:49:26;96941.94;;;21.07;59.29
25130;BME280;13308;50.860;13.664;2022-10-23T09:52:23;96938.44;;;20.30;60.04
25130;BME280;13308;50.860;13.664;2022-10-23T09:54:56;96940.03;;;20.08;61.94
25130;BME280;13308;50.860;13.664;2022-10-23T09:57:32;96939.56;;;20.00;63.38
25130;BME280;13308;50.860;13.664;2022-10-23T10:05:28;96930.53;;;19.17;63.96
25130;BME280;13308;50.860;13.664;2022-10-23T10:08:26;96932.31;;;19.38;64.57
25130;BME280;13308;50.860;13.664;2022-10-23T10:11:00;96929.34;;;19.41;65.40
25130;BME280;13308;50.860;13.664;2022-10-23T10:16:19;96925.78;;;19.41;68.23
25130;BME280;13308;50.860;13.664;2022-10-23T10:18:57;96919.63;;;19.19;71.25
25130;BME280;13308;50.860;13.664;2022-10-23T10:21:30;96925.63;;;18.94;68.16
25130;BME280;13308;50.860;13.664;2022-10-23T10:24:16;96926.13;;;19.34;70.39
25130;BME280;13308;50.860;13.664;2022-10-23T10:29:23;96928.16;;;18.74;72.17
25130;BME280;13308;50.860;13.664;2022-10-23T10:44:12;96895.84;;;18.82;73.83
25130;BME280;13308;50.860;13.664;2022-10-23T10:46:58;96887.50;;;18.73;72.09
25130;BME280;13308;50.860;13.664;2022-10-23T10:49:35;96892.44;;;18.78;73.13
25130;BME280;13308;50.860;13.664;2022-10-23T10:57:47;96875.31;;;19.59;66.14
25130;BME280;13308;50.860;13.664;2022-10-23T11:00:20;96876.59;;;19.96;64.62
25130;BME280;13308;50.860;13.664;2022-10-23T11:02:56;96878.03;;;20.15;60.63
25130;BME280;13308;50.860;13.664;2022-10-23T11:05:31;96882.91;;;20.58;59.45
25130;BME280;13308;50.860;13.664;2022-10-23T11:10:25;96882.91;;;20.87;56.08
25130;BME280;13308;50.860;13.664;2022-10-23T11:12:51;96874.81;;;20.74;56.59
25130;BME280;13308;50.860;13.664;2022-10-23T11:15:20;96874.81;;;20.89;55.59
25130;BME280;13308;50.860;13.664;2022-10-23T11:17:50;96883.09;;;20.83;57.41
25130;BME280;13308;50.860;13.664;2022-10-23T11:20:34;96875.28;;;20.73;54.95
25130;BME280;13308;50.860;13.664;2022-10-23T11:23:30;96871.59;;;20.67;56.11
25130;BME280;13308;50.860;13.664;2022-10-23T11:26:22;96875.00;;;20.42;55.13
25130;BME280;13308;50.860;13.664;2022-10-23T11:29:11;96864.13;;;20.06;56.41
25130;BME280;13308;50.860;13.664;2022-10-23T11:32:06;96866.72;;;20.09;57.04
25130;BME280;13308;50.860;13.664;2022-10-23T11:37:36;96855.03;;;19.17;57.56
25130;BME280;13308;50.860;13.664;2022-10-23T11:40:18;96859.47;;;18.91;58.97
25130;BME280;13308;50.860;13.664;2022-10-23T11:42:47;96849.06;;;18.50;60.69
25130;BME280;13308;50.860;13.664;2022-10-23T11:45:35;96846.88;;;18.54;61.29
25130;BME280;13308;50.860;13.664;2022-10-23T11:48:19;96830.16;;;18.36;61.95
25130;BME280;13308;50.860;13.664;2022-10-23T11:58:52;96832.56;;;18.70;64.51
25130;BME280;13308;50.860;13.664;2022-10-23T12:03:59;96821.88;;;18.92;63.07
25130;BME280;13308;50.860;13.664;2022-10-23T12:06:29;96819.53;;;18.99;62.48
25130;BME280;13308;50.860;13.664;2022-10-23T12:09:00;96825.84;;;19.09;60.96
25130;BME280;13308;50.860;13.664;2022-10-23T12:11:45;96822.94;;;19.03;61.45
25130;BME280;13308;50.860;13.664;2022-10-23T12:14:31;96814.06;;;19.05;62.27
25130;BME280;13308;50.860;13.664;2022-10-23T12:16:57;96811.94;;;18.91;62.89
25130;BME280;13308;50.860;13.664;2022-10-23T12:19:27;96804.19;;;18.95;61.11
25130;BME280;13308;50.860;13.664;2022-10-23T12:21:57;96795.91;;;19.00;62.06
25130;BME280;13308;50.860;13.664;2022-10-23T12:24:31;96793.03;;;18.86;62.12
25130;BME280;13308;50.860;13.664;2022-10-23T12:30:00;96782.41;;;18.99;62.82
25130;BME280;13308;50.860;13.664;2022-10-23T12:33:05;96774.59;;;18.80;61.52
25130;BME280;13308;50.860;13.664;2022-10-23T12:35:50;96771.06;;;18.70;62.52
25130;BME280;13308;50.860;13.664;2022-10-23T12:38:21;96770.72;;;18.77;62.00
25130;BME280;13308;50.860;13.664;2022-10-23T12:40:54;96760.84;;;18.67;62.18
25130;BME280;13308;50.860;13.664;2022-10-23T12:43:27;96775.19;;;18.51;63.72
25130;BME280;13308;50.860;13.664;2022-10-23T12:45:55;96767.97;;;18.68;62.16
25130;BME280;13308;50.860;13.664;2022-10-23T12:48:24;96759.00;;;18.64;62.29
25130;BME280;13308;50.860;13.664;2022-10-23T12:50:52;96750.63;;;18.55;62.46
25130;BME280;13308;50.860;13.664;2022-10-23T12:53:20;96741.31;;;18.58;63.86
25130;BME280;13308;50.860;13.664;2022-10-23T12:55:55;96744.25;;;18.64;63.46
25130;BME280;13308;50.860;13.664;2022-10-23T12:58:23;96744.50;;;18.42;64.81
25130;BME280;13308;50.860;13.664;2022-10-23T13:00:55;96742.69;;;18.63;65.17
25130;BME280;13308;50.860;13.664;2022-10-23T13:03:23;96735.28;;;18.83;63.76
25130;BME280;13308;50.860;13.664;2022-10-23T13:05:50;96730.53;;;18.98;63.24
25130;BME280;13308;50.860;13.664;2022-10-23T13:08:18;96726.50;;;18.99;63.82
25130;BME280;13308;50.860;13.664;2022-10-23T13:11:04;96712.88;;;18.92;65.49
25130;BME280;13308;50.860;13.664;2022-10-23T13:13:34;96718.63;;;18.65;66.34
25130;BME280;13308;50.860;13.664;2022-10-23T13:15:59;96719.06;;;18.40;68.72
25130;BME280;13308;50.860;13.664;2022-10-23T13:18:25;96715.03;;;18.32;68.41
25130;BME280;13308;50.860;13.664;2022-10-23T13:25:58;96707.22;;;18.04;70.40
25130;BME280;13308;50.860;13.664;2022-10-23T13:28:27;96703.88;;;17.73;71.38
25130;BME280;13308;50.860;13.664;2022-10-23T13:33:39;96701.56;;;17.71;72.86
25130;BME280;13308;50.860;13.664;2022-10-23T13:38:35;96688.84;;;17.70;73.23
25130;BME280;13308;50.860;13.664;2022-10-23T13:41:03;96707.44;;;17.73;72.55
25130;BME280;13308;50.860;13.664;2022-10-23T13:43:29;96703.75;;;17.58;73.92
25130;BME280;13308;50.860;13.664;2022-10-23T13:45:56;96694.75;;;17.63;74.07
25130;BME280;13308;50.860;13.664;2022-10-23T13:48:22;96684.34;;;17.64;72.60
25130;BME280;13308;50.860;13.664;2022-10-23T13:50:48;96697.25;;;17.43;75.11
25130;BME280;13308;50.860;13.664;2022-10-23T13:53:14;96687.66;;;17.44;73.93
25130;BME280;13308;50.860;13.664;2022-10-23T13:55:42;96691.97;;;17.36;75.32
25130;BME280;13308;50.860;13.664;2022-10-23T13:58:08;96677.09;;;17.48;73.75
25130;BME280;13308;50.860;13.664;2022-10-23T14:00:35;96677.25;;;17.36;74.30
25130;BME280;13308;50.860;13.664;2022-10-23T14:03:00;96664.88;;;17.46;74.73
25130;BME280;13308;50.860;13.664;2022-10-23T14:05:26;96668.75;;;17.39;74.97
25130;BME280;13308;50.860;13.664;2022-10-23T14:07:51;96666.56;;;17.07;75.90
25130;BME280;13308;50.860;13.664;2022-10-23T14:10:16;96664.56;;;17.08;75.69
25130;BME280;13308;50.860;13.664;2022-10-23T14:12:43;96665.94;;;16.94;76.32
25130;BME280;13308;50.860;13.664;2022-10-23T14:15:09;96659.28;;;16.65;78.21
25130;BME280;13308;50.860;13.664;2022-10-23T14:17:35;96654.34;;;16.78;77.14
25130;BME280;13308;50.860;13.664;2022-10-23T14:20:01;96660.03;;;16.65;78.31
25130;BME280;13308;50.860;13.664;2022-10-23T14:22:26;96643.97;;;16.69;78.04
25130;BME280;13308;50.860;13.664;2022-10-23T14:24:51;96648.44;;;16.85;77.10
25130;BME280;13308;50.860;13.664;2022-10-23T14:27:17;96655.13;;;16.87;77.16
25130;BME280;13308;50.860;13.664;2022-10-23T14:29:42;96650.47;;;16.75;77.84
25130;BME280;13308;50.860;13.664;2022-10-23T14:32:07;96646.75;;;16.69;78.41
25130;BME280;13308;50.860;13.664;2022-10-23T14:34:33;96643.66;;;16.76;78.22
25130;BME280;13308;50.860;13.664;2022-10-23T14:36:58;96637.44;;;16.63;77.84
25130;BME280;13308;50.860;13.664;2022-10-23T14:39:24;96627.84;;;16.55;77.55
25130;BME280;13308;50.860;13.664;2022-10-23T14:41:49;96618.88;;;16.69;76.65
25130;BME280;13308;50.860;13.664;2022-10-23T14:44:14;96630.31;;;16.44;78.12
25130;BME280;13308;50.860;13.664;2022-10-23T14:46:40;96629.22;;;16.42;78.07
25130;BME280;13308;50.860;13.664;2022-10-23T14:49:05;96628.13;;;16.39;77.83
25130;BME280;13308;50.860;13.664;2022-10-23T14:51:31;96624.41;;;16.42;78.56
25130;BME280;13308;50.860;13.664;2022-10-23T14:54:06;96626.06;;;16.22;80.10
25130;BME280;13308;50.860;13.664;2022-10-23T14:56:34;96620.16;;;16.20;80.41
25130;BME280;13308;50.860;13.664;2022-10-23T14:59:00;96620.00;;;16.14;80.60
25130;BME280;13308;50.860;13.664;2022-10-23T15:01:33;96621.53;;;16.15;80.82
25130;BME280;13308;50.860;13.664;2022-10-23T15:03:59;96609.78;;;16.11;81.35
25130;BME280;13308;50.860;13.664;2022-10-23T15:06:25;96606.69;;;16.18;81.99
25130;BME280;13308;50.860;13.664;2022-10-23T15:08:51;96605.75;;;16.12;82.63
25130;BME280;13308;50.860;13.664;2022-10-23T15:11:19;96599.72;;;16.05;82.36
25130;BME280;13308;50.860;13.664;2022-10-23T15:13:45;96590.44;;;16.08;82.12
25130;BME280;13308;50.860;13.664;2022-10-23T15:16:10;96600.78;;;15.98;82.33
25130;BME280;13308;50.860;13.664;2022-10-23T15:18:36;96588.25;;;16.03;81.80
25130;BME280;13308;50.860;13.664;2022-10-23T15:21:05;96585.03;;;16.04;81.55
25130;BME280;13308;50.860;13.664;2022-10-23T15:23:32;96597.53;;;16.00;80.79
25130;BME280;13308;50.860;13.664;2022-10-23T15:26:01;96587.16;;;15.91;80.99
25130;BME280;13308;50.860;13.664;2022-10-23T15:28:28;96593.03;;;15.93;79.71
25130;BME280;13308;50.860;13.664;2022-10-23T15:30:54;96603.25;;;15.96;78.97
25130;BME280;13308;50.860;13.664;2022-10-23T15:33:20;96600.19;;;16.03;78.77
25130;BME280;13308;50.860;13.664;2022-10-23T15:35:46;96593.38;;;16.04;78.63
25130;BME280;13308;50.860;13.664;2022-10-23T15:38:11;96591.19;;;15.99;79.25
25130;BME280;13308;50.860;13.664;2022-10-23T15:40:36;96594.41;;;15.89;80.28
25130;BME280;13308;50.860;13.664;2022-10-23T15:43:02;96586.22;;;15.85;80.55
25130;BME280;13308;50.860;13.664;2022-10-23T15:45:29;96589.00;;;15.85;80.39
25130;BME280;13308;50.860;13.664;2022-10-23T15:47:54;96588.69;;;15.83;80.48
25130;BME280;13308;50.860;13.664;2022-10-23T15:50:19;96587.13;;;15.82;80.17
25130;BME280;13308;50.860;13.664;2022-10-23T15:52:45;96589.88;;;15.82;80.28
25130;BME280;13308;50.860;13.664;2022-10-23T15:55:10;96586.50;;;15.78;80.86
25130;BME280;13308;50.860;13.664;2022-10-23T15:57:39;96588.94;;;15.76;81.55
25130;BME280;13308;50.860;13.664;2022-10-23T16:00:07;96589.59;;;15.80;81.75
25130;BME280;13308;50.860;13.664;2022-10-23T16:02:34;96594.47;;;15.67;82.69
25130;BME280;13308;50.860;13.664;2022-10-23T16:05:00;96579.34;;;15.68;82.36
25130;BME280;13308;50.860;13.664;2022-10-23T16:07:25;96583.38;;;15.76;81.93
25130;BME280;13308;50.860;13.664;2022-10-23T16:09:51;96579.69;;;15.79;82.11
25130;BME280;13308;50.860;13.664;2022-10-23T16:12:16;96579.50;;;15.74;82.69
25130;BME280;13308;50.860;13.664;2022-10-23T16:14:42;96583.06;;;15.65;83.48
25130;BME280;13308;50.860;13.664;2022-10-23T16:17:08;96579.94;;;15.63;83.98
25130;BME280;13308;50.860;13.664;2022-10-23T16:19:33;96579.31;;;15.59;84.29
25130;BME280;13308;50.860;13.664;2022-10-23T16:21:59;96582.84;;;15.60;84.04
25130;BME280;13308;50.860;13.664;2022-10-23T16:24:24;96575.78;;;15.68;84.21
25130;BME280;13308;50.860;13.664;2022-10-23T16:26:50;96566.47;;;15.62;84.86
25130;BME280;13308;50.860;13.664;2022-10-23T16:29:18;96568.38;;;15.65;85.33
25130;BME280;13308;50.860;13.664;2022-10-23T16:31:46;96574.38;;;15.63;85.50
25130;BME280;13308;50.860;13.664;2022-10-23T16:34:12;96564.94;;;15.61;86.13
25130;BME280;13308;50.860;13.664;2022-10-23T16:36:37;96552.47;;;15.65;86.13
25130;BME280;13308;50.860;13.664;2022-10-23T16:39:16;96567.88;;;15.57;86.86
25130;BME280;13308;50.860;13.664;2022-10-23T16:42:00;96557.69;;;15.63;86.81
25130;BME280;13308;50.860;13.664;2022-10-23T16:44:37;96559.81;;;15.50;87.34
25130;BME280;13308;50.860;13.664;2022-10-23T16:47:04;96551.03;;;15.61;86.85
25130;BME280;13308;50.860;13.664;2022-10-23T16:49:30;96533.41;;;15.55;86.84
25130;BME280;13308;50.860;13.664;2022-10-23T16:51:56;96529.28;;;15.68;86.39
25130;BME280;13308;50.860;13.664;2022-10-23T16:54:22;96522.44;;;15.51;87.12
25130;BME280;13308;50.860;13.664;2022-10-23T16:56:47;96531.72;;;15.57;87.39
25130;BME280;13308;50.860;13.664;2022-10-23T16:59:13;96535.56;;;15.51;87.26
25130;BME280;13308;50.860;13.664;2022-10-23T17:01:38;96531.13;;;15.62;86.48
25130;BME280;13308;50.860;13.664;2022-10-23T17:04:05;96524.41;;;15.42;87.47
25130;BME280;13308;50.860;13.664;2022-10-23T17:06:32;96525.19;;;15.42;87.19
25130;BME280;13308;50.860;13.664;2022-10-23T17:08:59;96528.88;;;15.39;87.64
25130;BME280;13308;50.860;13.664;2022-10-23T17:11:27;96543.34;;;15.34;87.56
25130;BME280;13308;50.860;13.664;2022-10-23T17:13:59;96533.81;;;15.35;87.71
25130;BME280;13308;50.860;13.664;2022-10-23T17:16:34;96535.81;;;15.35;88.67
25130;BME280;13308;50.860;13.664;2022-10-23T17:19:00;96538.19;;;15.24;89.17
25130;BME280;13308;50.860;13.664;2022-10-23T17:21:34;96536.81;;;15.28;89.34
25130;BME280;13308;50.860;13.664;2022-10-23T17:24:00;96539.03;;;15.33;89.55
25130;BME280;13308;50.860;13.664;2022-10-23T17:26:25;96528.81;;;15.30;89.75
25130;BME280;13308;50.860;13.664;2022-10-23T17:28:52;96540.06;;;15.27;89.77
25130;BME280;13308;50.860;13.664;2022-10-23T17:31:20;96543.91;;;15.29;90.08
25130;BME280;13308;50.860;13.664;2022-10-23T17:33:47;96536.59;;;15.35;90.07
25130;BME280;13308;50.860;13.664;2022-10-23T17:36:15;96523.25;;;15.30;90.33
